Time;durP1;ratioP1;P1;durP2;ratioP2;P2;SDS_P1;SDS_P2;PMS_P1;PMS_P2;Temp;Humidity;BMP_temperature;BMP_pressure;BME280_temperature;BME280_humidity;BME280_pressure;Samples;Min_cycle;Max_cycle;Signal;HPM_P1;HPM_P2
2023/04/24 00:02:06;;;;;;;1.47;1.30;;;;;;;20.78;54.72;96504.78;4942323;28;20711;-26
2023/04/24 00:04:33;;;;;;;1.50;1.40;;;;;;;20.82;54.25;96510.81;4928951;29;20212;-26
2023/04/24 00:07:00;;;;;;;1.40;1.30;;;;;;;20.81;54.71;96499.75;4941134;29;20551;-27
2023/04/24 00:09:26;;;;;;;1.33;1.23;;;;;;;20.81;54.53;96496.34;4934166;29;20201;-27
2023/04/24 00:11:53;;;;;;;1.27;1.20;;;;;;;20.81;54.78;96504.84;4934293;29;20657;-27
2023/04/24 00:14:20;;;;;;;1.47;1.37;;;;;;;20.81;54.58;96504.00;4942030;29;20205;-27
2023/04/24 00:16:46;;;;;;;1.50;1.40;;;;;;;20.80;54.53;96498.03;4936291;29;20284;-32
2023/04/24 00:19:13;;;;;;;1.47;1.37;;;;;;;20.81;54.47;96492.06;4935982;29;20721;-27
2023/04/24 00:21:40;;;;;;;1.47;1.37;;;;;;;20.81;54.50;96488.69;4925587;29;20225;-26
2023/04/24 00:24:08;;;;;;;1.40;1.30;;;;;;;20.81;54.77;96484.41;4938042;29;20209;-27
2023/04/24 00:26:35;;;;;;;1.33;1.27;;;;;;;20.78;54.73;96484.38;4937473;29;20201;-27
2023/04/24 00:29:02;;;;;;;1.13;1.13;;;;;;;20.80;54.61;96481.84;4937074;29;20592;-32
2023/04/24 00:31:28;;;;;;;1.20;1.20;;;;;;;20.82;54.30;96485.28;4937766;29;20228;-27
2023/04/24 00:33:55;;;;;;;1.40;1.30;;;;;;;20.76;54.71;96475.84;4936274;29;20239;-28
2023/04/24 00:36:21;;;;;;;1.67;1.30;;;;;;;20.81;54.31;96483.56;4924155;29;20197;-26
2023/04/24 00:38:48;;;;;;;1.30;1.20;;;;;;;20.81;54.30;96492.06;4943776;29;20205;-31
2023/04/24 00:41:14;;;;;;;1.50;1.40;;;;;;;20.78;54.25;96492.03;4945021;29;20726;-28
2023/04/24 00:43:41;;;;;;;1.23;1.13;;;;;;;20.81;54.77;96502.28;4941580;29;20204;-28
2023/04/24 00:46:07;;;;;;;2.33;1.30;;;;;;;20.82;54.41;96498.06;4944911;28;20211;-27
2023/04/24 00:48:34;;;;;;;1.20;1.20;;;;;;;20.79;54.66;96501.44;4937365;29;20215;-27
2023/04/24 00:51:01;;;;;;;1.33;1.23;;;;;;;20.82;54.41;96504.03;4944980;29;20221;-28
2023/04/24 00:53:27;;;;;;;1.40;1.30;;;;;;;20.79;54.25;96493.75;4937458;29;20240;-27
2023/04/24 00:55:54;;;;;;;1.33;1.23;;;;;;;20.82;54.61;96492.94;4944656;29;20291;-27
2023/04/24 00:58:20;;;;;;;1.40;1.30;;;;;;;20.81;54.47;96497.19;4943460;29;20572;-26
2023/04/24 01:00:47;;;;;;;1.40;1.30;;;;;;;20.81;54.45;96499.75;4935515;29;20337;-27
2023/04/24 01:03:14;;;;;;;1.40;1.30;;;;;;;20.79;54.50;96488.66;4935549;29;20201;-27
2023/04/24 01:05:41;;;;;;;1.63;1.40;;;;;;;20.75;54.60;96479.22;4937488;29;20291;-27
2023/04/24 01:08:07;;;;;;;1.20;1.10;;;;;;;20.82;54.38;96491.25;4916964;29;20257;-27
2023/04/24 01:10:34;;;;;;;1.10;1.10;;;;;;;20.82;54.77;96498.91;4942567;29;20228;-27
2023/04/24 01:13:00;;;;;;;1.27;1.23;;;;;;;20.81;54.34;96492.06;4943426;29;20222;-26
2023/04/24 01:15:27;;;;;;;1.40;1.30;;;;;;;20.82;54.72;96488.72;4936488;29;20211;-33
2023/04/24 01:17:53;;;;;;;1.30;1.20;;;;;;;20.81;54.72;96492.06;4943384;29;20291;-30
2023/04/24 01:20:20;;;;;;;1.40;1.30;;;;;;;20.81;54.54;96488.69;4943559;29;20680;-27
2023/04/24 01:22:47;;;;;;;1.40;1.30;;;;;;;20.81;54.62;96491.25;4935074;29;20247;-27
2023/04/24 01:25:14;;;;;;;1.40;1.30;;;;;;;20.82;54.68;96490.38;4941900;29;20213;-28
2023/04/24 01:27:41;;;;;;;1.80;1.30;;;;;;;20.82;54.60;96498.06;4940900;29;20228;-27
2023/04/24 01:30:08;;;;;;;1.43;1.30;;;;;;;20.82;54.31;96500.59;4936767;29;20211;-27
2023/04/24 01:32:34;;;;;;;1.53;1.43;;;;;;;20.75;54.68;96486.03;4934601;29;20225;-28
2023/04/24 01:35:01;;;;;;;1.40;1.30;;;;;;;20.82;54.54;96493.81;4933151;29;20209;-28
2023/04/24 01:37:28;;;;;;;3.33;1.33;;;;;;;20.82;54.35;96487.84;4936280;29;20201;-27
2023/04/24 01:39:54;;;;;;;1.20;1.20;;;;;;;20.81;54.65;96491.25;4940251;29;20609;-26
2023/04/24 01:42:21;;;;;;;1.30;1.30;;;;;;;20.81;55.23;96486.13;4940806;28;20217;-28
2023/04/24 01:44:48;;;;;;;1.40;1.30;;;;;;;20.82;54.36;96492.94;4937080;29;20268;-26
2023/04/24 01:47:14;;;;;;;1.10;1.10;;;;;;;20.81;53.95;96486.97;4942753;29;20197;-28
2023/04/24 01:49:41;;;;;;;1.67;1.20;;;;;;;20.81;54.21;96489.53;4935210;29;20660;-27
2023/04/24 01:52:08;;;;;;;1.43;1.37;;;;;;;20.82;54.29;96473.38;4935606;29;20727;-27
2023/04/24 01:54:34;;;;;;;1.23;1.23;;;;;;;20.81;54.31;96474.19;4943752;29;20578;-28
2023/04/24 01:57:02;;;;;;;1.40;1.30;;;;;;;20.81;54.10;96468.25;4942374;29;20490;-28
2023/04/24 01:59:29;;;;;;;1.30;1.23;;;;;;;20.80;54.22;96469.06;4948834;28;20624;-26
2023/04/24 02:01:55;;;;;;;1.50;1.40;;;;;;;20.81;54.54;96481.03;4919063;29;20223;-26
2023/04/24 02:04:22;;;;;;;1.17;1.17;;;;;;;20.81;54.35;96469.09;4944815;29;20201;-28
2023/04/24 02:06:48;;;;;;;1.60;1.50;;;;;;;20.81;54.10;96465.69;4940467;29;20329;-28
2023/04/24 02:09:15;;;;;;;1.37;1.20;;;;;;;20.81;54.46;96466.53;4938928;29;20630;-27
2023/04/24 02:11:42;;;;;;;1.30;1.20;;;;;;;20.81;54.07;96465.69;4941107;28;20373;-26
2023/04/24 02:14:08;;;;;;;1.30;1.20;;;;;;;20.81;54.29;96458.88;4946466;29;20235;-27
2023/04/24 02:16:35;;;;;;;1.23;1.23;;;;;;;20.81;54.26;96464.00;4940940;29;20205;-27
2023/04/24 02:19:02;;;;;;;1.40;1.30;;;;;;;20.80;54.25;96454.63;4938164;29;20613;-26
2023/04/24 02:21:30;;;;;;;1.50;1.30;;;;;;;20.80;54.47;96456.31;4939521;29;20232;-27
2023/04/24 02:23:57;;;;;;;1.77;1.20;;;;;;;20.81;54.41;96458.88;4938605;28;20208;-28
2023/04/24 02:26:24;;;;;;;1.20;1.20;;;;;;;20.82;54.33;96454.66;4935437;29;20196;-27
2023/04/24 02:28:50;;;;;;;1.30;1.30;;;;;;;20.83;53.92;96457.22;4941527;29;20204;-27
2023/04/24 02:31:17;;;;;;;1.27;1.27;;;;;;;20.83;54.46;96453.78;4935215;29;20292;-27
2023/04/24 02:33:43;;;;;;;1.17;1.17;;;;;;;20.83;54.15;96457.22;4941589;28;20235;-27
2023/04/24 02:36:10;;;;;;;1.20;1.17;;;;;;;20.83;54.36;96464.88;4940200;28;20664;-26
2023/04/24 02:38:36;;;;;;;1.20;1.20;;;;;;;20.83;54.19;96457.22;4937988;29;20208;-28
2023/04/24 02:41:06;;;;;;;1.30;1.20;;;;;;;20.84;54.53;96458.09;4934846;29;20252;-27
2023/04/24 02:43:33;;;;;;;1.87;1.30;;;;;;;20.84;54.39;96456.38;4939929;29;20291;-27
2023/04/24 02:45:59;;;;;;;1.37;1.27;;;;;;;20.84;54.27;96458.94;4938399;28;20216;-27
2023/04/24 02:48:26;;;;;;;1.30;1.20;;;;;;;20.84;54.33;96460.66;4936089;29;20208;-27
2023/04/24 02:50:52;;;;;;;1.10;1.10;;;;;;;20.85;54.19;96463.22;4940659;29;20220;-28
2023/04/24 02:53:19;;;;;;;1.40;1.30;;;;;;;20.84;54.58;96458.09;4934736;29;20252;-28
2023/04/24 02:55:46;;;;;;;1.30;1.20;;;;;;;20.84;54.80;96458.09;4942202;29;20617;-27
2023/04/24 02:58:12;;;;;;;1.10;1.10;;;;;;;20.84;53.59;96458.94;4936021;28;20212;-31
2023/04/24 03:00:39;;;;;;;1.10;1.10;;;;;;;20.84;54.18;96466.59;4941418;29;20232;-27
2023/04/24 03:03:06;;;;;;;1.20;1.20;;;;;;;20.84;54.28;96469.13;4943855;28;20236;-27
2023/04/24 03:05:33;;;;;;;1.10;1.10;;;;;;;20.86;54.32;96474.28;4938493;29;20288;-28
2023/04/24 03:08:00;;;;;;;1.20;1.20;;;;;;;20.85;53.81;96470.00;4934739;29;20205;-29
2023/04/24 03:10:26;;;;;;;1.10;1.10;;;;;;;20.85;54.77;96478.53;4935310;29;20221;-26
2023/04/24 03:12:54;;;;;;;1.13;1.13;;;;;;;20.83;54.48;96464.00;4936039;28;20228;-32
2023/04/24 03:15:21;;;;;;;1.20;1.20;;;;;;;20.84;53.58;96476.81;4935909;29;20228;-32
2023/04/24 03:17:47;;;;;;;1.30;1.20;;;;;;;20.85;54.49;96476.00;4930164;29;20201;-28
2023/04/24 03:20:15;;;;;;;1.10;1.10;;;;;;;20.72;54.34;96453.63;4934574;29;20204;-26
2023/04/24 03:22:42;;;;;;;1.20;1.10;;;;;;;20.84;54.28;96476.81;4937942;29;20638;-28
2023/04/24 03:25:09;;;;;;;1.33;1.23;;;;;;;20.84;54.32;96476.81;4938239;29;20296;-26
2023/04/24 03:27:36;;;;;;;1.00;1.00;;;;;;;20.85;54.10;96476.00;4937088;29;20235;-27
2023/04/24 03:30:03;;;;;;;1.10;1.10;;;;;;;20.85;54.29;96472.56;4939380;29;20205;-27
2023/04/24 03:32:30;;;;;;;2.30;1.23;;;;;;;20.84;54.31;96471.69;4933996;29;20751;-26
2023/04/24 03:34:56;;;;;;;1.20;1.07;;;;;;;20.84;54.21;96475.97;4935051;29;20205;-27
2023/04/24 03:37:23;;;;;;;1.07;1.07;;;;;;;20.85;53.91;96480.22;4934388;29;20197;-26
2023/04/24 03:39:49;;;;;;;1.10;1.10;;;;;;;20.84;54.19;96479.34;4938803;29;20236;-26
2023/04/24 03:42:16;;;;;;;1.43;1.10;;;;;;;20.85;54.34;96481.09;4934014;29;20227;-27
2023/04/24 03:44:42;;;;;;;1.37;1.27;;;;;;;20.85;54.39;96480.22;4939733;29;20251;-28
2023/04/24 03:47:09;;;;;;;1.10;1.10;;;;;;;20.85;54.22;96482.78;4941332;28;20295;-29
2023/04/24 03:49:35;;;;;;;1.00;1.00;;;;;;;20.85;54.48;96477.66;4929666;29;20197;-27
2023/04/24 03:52:02;;;;;;;1.27;1.17;;;;;;;20.83;54.52;96475.09;4934185;29;20225;-27
2023/04/24 03:54:29;;;;;;;1.30;1.20;;;;;;;20.86;53.91;96476.81;4935955;29;20263;-30
2023/04/24 03:56:55;;;;;;;1.40;1.30;;;;;;;20.81;53.97;96471.66;4932580;29;20207;-30
2023/04/24 03:59:22;;;;;;;1.10;1.10;;;;;;;20.85;53.70;96472.56;4937751;29;20279;-30
2023/04/24 04:01:48;;;;;;;1.07;1.07;;;;;;;20.84;53.84;96469.13;4933656;29;20244;-30
2023/04/24 04:04:15;;;;;;;1.20;1.10;;;;;;;20.84;54.41;96466.59;4933815;29;20437;-29
2023/04/24 04:06:43;;;;;;;1.20;1.20;;;;;;;20.84;54.36;96471.69;4936279;29;20205;-29
2023/04/24 04:09:10;;;;;;;1.27;1.27;;;;;;;20.84;54.21;96476.81;4934502;29;20208;-30
2023/04/24 04:11:37;;;;;;;1.20;1.20;;;;;;;20.83;54.60;96475.09;4932380;29;20347;-29
2023/04/24 04:14:03;;;;;;;1.10;1.10;;;;;;;20.84;54.25;96465.75;4934050;29;20205;-29
2023/04/24 04:16:30;;;;;;;1.40;1.30;;;;;;;20.80;54.27;96463.97;4935782;29;20260;-30
2023/04/24 04:18:57;;;;;;;1.10;1.10;;;;;;;20.82;54.54;96473.38;4924760;29;20661;-30
2023/04/24 04:21:23;;;;;;;1.00;1.00;;;;;;;20.82;54.42;96469.97;4933741;29;20602;-30
2023/04/24 04:23:50;;;;;;;1.30;1.20;;;;;;;20.83;54.20;96471.66;4933388;29;20743;-32
2023/04/24 04:26:18;;;;;;;1.07;1.07;;;;;;;20.81;54.33;96469.09;4928981;28;20207;-30
2023/04/24 04:28:45;;;;;;;1.30;1.20;;;;;;;20.84;53.68;96468.31;4933428;29;20201;-29
2023/04/24 04:31:12;;;;;;;1.20;1.10;;;;;;;20.83;54.66;96472.53;4933601;29;20229;-29
2023/04/24 04:33:39;;;;;;;1.20;1.20;;;;;;;20.83;54.21;96467.44;4932517;29;20201;-30
2023/04/24 04:36:06;;;;;;;1.10;1.10;;;;;;;20.83;54.17;96477.66;4938368;29;20220;-29
2023/04/24 04:38:32;;;;;;;1.30;1.20;;;;;;;20.84;54.49;96481.06;4941396;28;20668;-29
2023/04/24 04:40:59;;;;;;;1.10;1.10;;;;;;;20.84;54.09;96473.41;4933398;29;20648;-30
2023/04/24 04:43:26;;;;;;;1.10;1.10;;;;;;;20.83;54.23;96471.66;4933479;29;20215;-30
2023/04/24 04:45:54;;;;;;;1.30;1.20;;;;;;;20.84;54.85;96478.53;4935106;28;20201;-29
2023/04/24 04:48:21;;;;;;;1.13;1.03;;;;;;;20.84;54.18;96481.06;4931260;28;20208;-29
2023/04/24 04:50:47;;;;;;;1.10;1.10;;;;;;;20.64;54.65;96436.50;4933604;29;20252;-29
2023/04/24 04:53:14;;;;;;;1.20;1.10;;;;;;;20.83;54.01;96477.66;4934519;28;20225;-30
2023/04/24 04:55:40;;;;;;;1.10;1.10;;;;;;;20.84;54.10;96476.81;4938997;29;20201;-29
2023/04/24 04:58:07;;;;;;;1.10;1.10;;;;;;;20.83;54.26;96477.66;4933467;29;20680;-31
2023/04/24 05:00:35;;;;;;;1.10;1.10;;;;;;;20.84;54.24;96481.91;4932703;29;20288;-32
2023/04/24 05:03:02;;;;;;;1.10;1.10;;;;;;;20.80;53.95;96479.28;4933133;29;20209;-29
2023/04/24 05:05:45;;;;;;;1.00;1.00;;;;;;;20.79;54.63;96483.56;4938431;29;20334;-29
2023/04/24 05:08:12;;;;;;;1.00;1.00;;;;;;;20.84;54.31;96484.47;4940521;29;20211;-30
2023/04/24 05:10:52;;;;;;;1.30;1.20;;;;;;;20.83;54.12;96487.00;4939353;29;20207;-29
2023/04/24 05:13:18;;;;;;;1.10;1.10;;;;;;;20.84;54.15;96487.03;4944232;29;20597;-29
2023/04/24 05:16:01;;;;;;;1.63;1.27;;;;;;;20.85;54.41;96493.88;4938926;28;20212;-30
2023/04/24 05:18:28;;;;;;;1.10;1.10;;;;;;;20.84;54.01;96499.78;4937981;29;20263;-31
2023/04/24 05:20:54;;;;;;;1.40;1.30;;;;;;;20.84;54.14;96499.78;4936576;29;20201;-30
2023/04/24 05:23:21;;;;;;;1.33;1.23;;;;;;;20.82;53.89;96501.47;4937029;29;20349;-30
2023/04/24 05:25:47;;;;;;;1.20;1.20;;;;;;;20.84;53.82;96506.59;4942860;29;20288;-29
2023/04/24 05:28:15;;;;;;;1.40;1.00;;;;;;;20.76;53.70;96498.81;4937387;29;20731;-31
2023/04/24 05:30:41;;;;;;;1.97;1.30;;;;;;;20.84;54.13;96512.56;4937266;29;20205;-31
2023/04/24 05:33:08;;;;;;;1.50;1.40;;;;;;;20.85;53.97;96505.75;4935144;29;20217;-30
2023/04/24 05:35:35;;;;;;;2.23;1.27;;;;;;;20.84;54.14;96504.88;4936982;29;20216;-27
2023/04/24 05:38:02;;;;;;;1.27;1.17;;;;;;;20.84;54.09;96502.34;4939066;29;20284;-26
2023/04/24 05:40:28;;;;;;;1.10;1.10;;;;;;;20.85;53.66;96511.75;4936444;29;20292;-29
2023/04/24 05:42:55;;;;;;;1.30;1.20;;;;;;;20.85;53.92;96504.06;4941529;29;20221;-27
2023/04/24 05:45:22;;;;;;;1.40;1.30;;;;;;;20.79;53.65;96495.44;4941356;29;20687;-27
2023/04/24 05:47:48;;;;;;;1.27;1.17;;;;;;;20.84;53.92;96504.88;4940056;29;20613;-26
2023/04/24 05:50:15;;;;;;;1.40;1.30;;;;;;;20.85;53.92;96510.88;4936115;29;20208;-28
2023/04/24 05:52:42;;;;;;;1.10;1.10;;;;;;;20.83;54.04;96500.63;4941580;29;20220;-27
2023/04/24 05:55:08;;;;;;;1.20;1.20;;;;;;;20.82;54.63;96504.03;4939809;28;20212;-26
2023/04/24 05:57:35;;;;;;;1.20;1.10;;;;;;;20.85;54.06;96513.41;4942172;29;20216;-27
2023/04/24 06:00:02;;;;;;;1.40;1.30;;;;;;;20.86;53.81;96515.13;4942455;29;20236;-27
2023/04/24 06:02:32;;;;;;;1.30;1.20;;;;;;;20.86;53.90;96520.25;4940570;28;20220;-28
2023/04/24 06:04:59;;;;;;;1.20;1.10;;;;;;;20.86;54.03;96521.09;4926032;29;20583;-26
2023/04/24 06:07:26;;;;;;;5.17;1.47;;;;;;;20.83;54.01;96526.16;4936927;29;20201;-26
2023/04/24 06:09:52;;;;;;;1.30;1.20;;;;;;;20.85;53.71;96528.75;4936157;29;20287;-26
2023/04/24 06:12:19;;;;;;;1.30;1.20;;;;;;;20.84;54.22;96525.31;4937168;29;21383;-26
2023/04/24 06:14:45;;;;;;;1.40;1.30;;;;;;;20.86;54.13;96535.56;4941215;29;20226;-28
2023/04/24 06:17:12;;;;;;;1.43;1.33;;;;;;;20.83;53.99;96531.28;4930043;29;20216;-28
2023/04/24 06:19:39;;;;;;;1.70;1.33;;;;;;;20.82;53.75;96527.00;4932173;29;20201;-27
2023/04/24 06:22:05;;;;;;;2.33;1.30;;;;;;;20.85;53.65;96531.28;4932664;29;20237;-27
2023/04/24 06:24:34;;;;;;;1.30;1.20;;;;;;;20.75;53.87;96521.78;4935000;29;20244;-27
2023/04/24 06:27:01;;;;;;;1.40;1.30;;;;;;;20.83;53.83;96538.06;4933678;29;20231;-27
2023/04/24 06:29:27;;;;;;;1.43;1.13;;;;;;;20.83;54.00;96538.94;4935912;29;20301;-28
2023/04/24 06:31:54;;;;;;;1.40;1.30;;;;;;;20.82;54.00;96532.13;4935067;29;20229;-28
2023/04/24 06:34:21;;;;;;;2.90;1.27;;;;;;;20.84;53.97;96532.97;4933384;29;20237;-34
2023/04/24 06:36:47;;;;;;;1.57;1.40;;;;;;;20.82;54.27;96536.34;4943207;29;20200;-28
2023/04/24 06:39:14;;;;;;;2.13;1.30;;;;;;;20.84;54.21;96540.63;4939810;28;20646;-27
2023/04/24 06:41:41;;;;;;;1.40;1.30;;;;;;;20.84;53.91;96534.69;4942198;28;20232;-28
2023/04/24 06:44:07;;;;;;;1.40;1.30;;;;;;;20.79;54.21;96526.09;4938151;29;20662;-31
2023/04/24 06:46:34;;;;;;;3.70;1.23;;;;;;;20.84;53.96;96522.75;4932800;28;20295;-27
2023/04/24 06:49:01;;;;;;;2.80;1.20;;;;;;;20.85;54.04;96529.63;4942078;29;20215;-27
2023/04/24 06:51:27;;;;;;;1.67;1.10;;;;;;;20.84;54.15;96522.75;4935944;29;20252;-32
2023/04/24 06:53:55;;;;;;;1.40;1.30;;;;;;;20.84;54.00;96527.88;4937872;29;20708;-27
2023/04/24 06:56:22;;;;;;;1.10;1.10;;;;;;;20.83;53.52;96517.63;4935727;29;20216;-27
2023/04/24 06:58:49;;;;;;;1.60;1.30;;;;;;;20.83;53.95;96515.94;4933591;29;20284;-26
2023/04/24 07:01:15;;;;;;;2.60;1.30;;;;;;;20.85;54.09;96519.41;4946442;28;21102;-29
2023/04/24 07:03:42;;;;;;;1.43;1.33;;;;;;;20.85;53.91;96526.19;4935558;29;20201;-27
2023/04/24 07:06:10;;;;;;;1.50;1.10;;;;;;;20.79;53.98;96528.66;4937274;28;20209;-27
2023/04/24 07:08:36;;;;;;;1.10;1.10;;;;;;;20.83;54.08;96540.63;4915672;29;20293;-28
2023/04/24 07:11:03;;;;;;;1.40;1.30;;;;;;;20.85;53.65;96550.03;4932003;29;20759;-28
2023/04/24 07:13:30;;;;;;;1.37;1.23;;;;;;;20.85;53.87;96546.63;4944271;29;20235;-27
2023/04/24 07:15:56;;;;;;;1.00;0.93;;;;;;;20.80;54.04;96540.56;4932151;29;20680;-27
2023/04/24 07:18:23;;;;;;;1.50;1.40;;;;;;;20.84;53.96;96548.31;4931489;29;20292;-27
2023/04/24 07:20:50;;;;;;;1.10;1.10;;;;;;;20.85;54.12;96546.63;4933291;29;20636;-26
2023/04/24 07:23:17;;;;;;;2.07;1.20;;;;;;;20.85;53.85;96552.59;4938733;29;20256;-27
2023/04/24 07:25:44;;;;;;;1.20;1.20;;;;;;;20.85;53.98;96557.69;4935563;29;20296;-27
2023/04/24 07:28:11;;;;;;;1.40;1.30;;;;;;;20.78;53.82;96549.91;4932777;29;20205;-28
2023/04/24 07:30:37;;;;;;;1.20;1.10;;;;;;;20.84;53.77;96561.06;4931365;29;20311;-28
2023/04/24 07:33:04;;;;;;;1.37;1.20;;;;;;;20.85;54.07;96567.91;4942069;29;20275;-26
2023/04/24 07:35:30;;;;;;;1.10;1.10;;;;;;;20.85;54.36;96567.03;4932373;28;20208;-31
2023/04/24 07:37:57;;;;;;;1.10;1.10;;;;;;;20.85;53.85;96570.47;4914771;29;20296;-28
2023/04/24 07:40:23;;;;;;;1.30;1.20;;;;;;;20.84;53.76;96567.91;4932260;29;20211;-28
2023/04/24 07:42:50;;;;;;;1.20;1.10;;;;;;;20.86;53.99;96571.31;4930158;29;20223;-28
2023/04/24 07:45:17;;;;;;;1.20;1.10;;;;;;;20.86;53.99;96595.16;4941105;28;20218;-28
2023/04/24 07:47:45;;;;;;;1.23;1.13;;;;;;;20.82;53.82;96601.06;4937041;29;20623;-28
2023/04/24 07:50:12;;;;;;;1.30;1.10;;;;;;;20.86;54.07;96609.63;4934536;28;20570;-27
2023/04/24 07:52:39;;;;;;;1.67;1.20;;;;;;;20.86;54.12;96602.81;4929759;29;20704;-27
2023/04/24 07:55:06;;;;;;;1.17;1.17;;;;;;;20.86;54.13;96614.72;4937580;29;21241;-27
2023/04/24 07:57:33;;;;;;;1.40;1.30;;;;;;;20.86;53.47;96630.03;4935016;28;20201;-28
2023/04/24 08:00:00;;;;;;;2.83;1.07;;;;;;;20.86;54.11;96630.91;4930099;29;20205;-30
2023/04/24 08:02:26;;;;;;;1.53;1.30;;;;;;;20.87;54.11;96626.69;4934571;28;20278;-27
2023/04/24 08:04:54;;;;;;;1.10;1.10;;;;;;;20.84;54.00;96624.06;4930052;29;20204;-27
2023/04/24 08:07:21;;;;;;;1.20;1.20;;;;;;;20.86;53.86;96630.91;4932775;29;20205;-28
2023/04/24 08:09:47;;;;;;;1.53;1.20;;;;;;;20.86;53.89;96633.47;4932519;29;20204;-27
2023/04/24 08:12:14;;;;;;;1.03;1.03;;;;;;;20.87;54.13;96639.44;4934647;29;20318;-28
2023/04/24 08:14:40;;;;;;;1.53;1.13;;;;;;;20.87;53.82;96637.72;4934057;29;20244;-27
2023/04/24 08:17:07;;;;;;;1.47;1.20;;;;;;;20.78;53.28;96623.97;4930737;29;20596;-26
2023/04/24 08:19:34;;;;;;;2.03;1.20;;;;;;;20.86;53.40;96641.13;4936544;29;20200;-26
2023/04/24 08:22:01;;;;;;;1.40;1.30;;;;;;;20.86;53.42;96642.81;4933423;29;20236;-27
2023/04/24 08:24:27;;;;;;;1.10;1.10;;;;;;;20.85;53.42;96644.53;4932562;28;20209;-28
2023/04/24 08:26:56;;;;;;;1.10;1.10;;;;;;;20.86;53.30;96632.59;4934055;29;20197;-28
2023/04/24 08:29:23;;;;;;;1.63;1.30;;;;;;;20.84;53.22;96637.69;4934979;29;20213;-26
2023/04/24 08:31:49;;;;;;;1.20;1.10;;;;;;;20.84;53.42;96641.94;4930380;29;20674;-28
2023/04/24 08:34:16;;;;;;;3.33;1.30;;;;;;;20.78;53.45;96634.19;4934305;29;20224;-26
2023/04/24 08:36:43;;;;;;;1.50;1.33;;;;;;;20.84;53.39;96649.63;4931506;29;20235;-30
2023/04/24 08:39:13;;;;;;;1.37;1.27;;;;;;;20.83;53.45;96643.63;4932175;29;20296;-32
2023/04/24 08:41:42;;;;;;;1.13;1.03;;;;;;;20.81;53.41;96647.84;4932638;29;20312;-30
2023/04/24 08:44:10;;;;;;;1.10;1.10;;;;;;;20.84;53.58;96654.72;4936750;29;20235;-31
2023/04/24 08:46:37;;;;;;;1.40;1.30;;;;;;;20.83;53.57;96637.66;4935671;29;20205;-30
2023/04/24 08:49:03;;;;;;;1.27;1.17;;;;;;;20.83;53.49;96638.53;4935977;29;20715;-30
2023/04/24 08:51:30;;;;;;;1.20;1.10;;;;;;;20.80;53.77;96635.91;4933962;29;20766;-30
2023/04/24 08:53:57;;;;;;;1.40;1.30;;;;;;;20.82;53.51;96634.25;4934117;29;20252;-31
2023/04/24 08:56:24;;;;;;;1.30;1.20;;;;;;;20.81;54.01;96632.53;4934908;29;20347;-30
2023/04/24 08:58:51;;;;;;;2.10;1.27;;;;;;;20.79;53.76;96639.31;4937577;29;20680;-30
2023/04/24 09:01:19;;;;;;;4.00;1.20;;;;;;;20.84;53.81;96641.94;4937695;29;20299;-30
2023/04/24 09:03:49;;;;;;;5.33;1.67;;;;;;;20.84;53.82;96642.78;4917926;29;20582;-29
2023/04/24 09:06:17;;;;;;;2.43;1.33;;;;;;;20.80;53.69;96632.50;4946825;28;20654;-30
2023/04/24 09:08:44;;;;;;;8.20;1.53;;;;;;;20.74;53.81;96620.47;4932740;29;20586;-29
2023/04/24 09:11:10;;;;;;;4.50;1.40;;;;;;;20.85;53.79;96643.66;4918181;29;20331;-31
2023/04/24 09:13:37;;;;;;;4.53;1.57;;;;;;;20.83;53.89;96635.09;4941095;29;20272;-30
2023/04/24 09:16:04;;;;;;;4.73;1.50;;;;;;;20.86;54.03;96653.03;4939303;28;20583;-31
2023/04/24 09:18:30;;;;;;;2.67;1.60;;;;;;;20.85;53.90;96646.22;4934114;29;20575;-30
2023/04/24 09:21:06;;;;;;;3.33;1.60;;;;;;;20.85;54.00;96641.09;4937179;29;20241;-30
2023/04/24 09:23:33;;;;;;;2.93;1.20;;;;;;;20.84;53.93;96640.22;4947770;29;20288;-30
2023/04/24 09:26:00;;;;;;;3.37;1.30;;;;;;;20.84;53.82;96644.50;4936249;28;20232;-32
2023/04/24 09:28:37;;;;;;;2.50;1.20;;;;;;;20.82;53.94;96654.69;4939112;28;20207;-31
2023/04/24 09:31:13;;;;;;;1.87;1.30;;;;;;;20.83;53.90;96647.88;4936163;29;20267;-30
2023/04/24 09:33:40;;;;;;;1.50;1.17;;;;;;;20.81;53.80;96645.28;4944940;29;20216;-31
2023/04/24 09:36:07;;;;;;;4.30;1.30;;;;;;;20.79;53.94;96653.75;4940081;28;20248;-30
2023/04/24 09:38:37;;;;;;;1.80;1.40;;;;;;;20.83;53.99;96663.19;4936274;28;20311;-30
2023/04/24 09:41:07;;;;;;;2.83;1.47;;;;;;;20.81;53.99;96662.31;4937614;29;20231;-30
2023/04/24 09:43:34;;;;;;;3.70;1.57;;;;;;;20.80;53.86;96656.34;4933530;29;20695;-29
2023/04/24 09:46:08;;;;;;;4.57;1.23;;;;;;;20.82;54.11;96667.47;4936289;29;20662;-30
2023/04/24 09:48:36;;;;;;;3.77;1.30;;;;;;;20.82;53.89;96659.78;4935115;29;20212;-30
2023/04/24 09:51:03;;;;;;;2.17;1.20;;;;;;;20.83;54.20;96668.28;4934489;29;20225;-32
2023/04/24 09:53:30;;;;;;;2.07;1.27;;;;;;;20.82;53.90;96661.47;4935685;29;20225;-32
2023/04/24 09:56:02;;;;;;;1.00;1.00;;;;;;;20.82;53.99;96659.78;4933065;28;20585;-35
2023/04/24 09:58:29;;;;;;;2.87;1.40;;;;;;;20.82;53.98;96657.25;4936884;29;20208;-30
2023/04/24 10:00:56;;;;;;;2.40;1.30;;;;;;;20.80;53.97;96658.03;4933423;29;20228;-30
2023/04/24 10:03:29;;;;;;;0.90;0.90;;;;;;;20.83;54.16;96653.84;4941093;29;20205;-31
2023/04/24 10:05:59;;;;;;;1.27;1.17;;;;;;;20.82;54.08;96646.16;4933848;29;20209;-29
2023/04/24 10:08:26;;;;;;;2.37;1.00;;;;;;;20.76;53.99;96630.72;4940262;29;20209;-31
2023/04/24 10:10:52;;;;;;;2.50;1.60;;;;;;;20.81;54.31;96639.34;4932107;29;20213;-30
2023/04/24 10:13:19;;;;;;;2.00;1.10;;;;;;;20.82;54.28;96641.91;4932393;29;20873;-29
2023/04/24 10:15:46;;;;;;;1.50;1.20;;;;;;;20.81;54.02;96644.44;4942368;29;20200;-30
2023/04/24 10:18:13;;;;;;;1.67;1.13;;;;;;;20.81;54.55;96639.34;4919632;29;20320;-29
2023/04/24 10:20:40;;;;;;;1.20;1.20;;;;;;;20.80;54.12;96641.03;4935174;29;20683;-31
2023/04/24 10:23:06;;;;;;;1.63;1.17;;;;;;;20.79;53.75;96633.34;4933674;29;20208;-31
2023/04/24 10:25:35;;;;;;;1.47;1.30;;;;;;;20.79;54.04;96646.97;4933944;29;20220;-34
2023/04/24 10:28:01;;;;;;;1.30;1.20;;;;;;;20.73;54.03;96636.66;4935750;29;20359;-30
2023/04/24 10:30:36;;;;;;;1.20;1.10;;;;;;;20.72;53.85;96645.13;4940680;28;20636;-30
2023/04/24 10:33:04;;;;;;;3.97;1.40;;;;;;;20.73;54.25;96659.63;4938813;28;20707;-30
2023/04/24 10:35:32;;;;;;;1.30;1.20;;;;;;;20.79;54.02;96695.50;4916258;29;20629;-27
2023/04/24 10:38:12;;;;;;;1.00;1.00;;;;;;;20.78;54.01;96696.31;4917312;29;20218;-27
2023/04/24 10:40:39;;;;;;;1.53;1.30;;;;;;;20.78;54.15;96708.22;4930162;29;20621;-27
2023/04/24 10:43:09;;;;;;;2.80;1.60;;;;;;;20.74;54.15;96694.53;4933857;28;20244;-27
2023/04/24 10:45:35;;;;;;;1.40;1.10;;;;;;;20.76;54.21;96692.00;4931930;29;20284;-30
2023/04/24 10:48:03;;;;;;;1.60;1.20;;;;;;;20.74;53.95;96679.22;4935505;29;20208;-28
2023/04/24 10:50:50;;;;;;;3.43;1.30;;;;;;;20.74;54.07;96681.75;4931220;29;20205;-27
2023/04/24 10:53:18;;;;;;;1.53;1.40;;;;;;;20.76;54.06;96681.78;4934266;29;20224;-26
2023/04/24 10:55:52;;;;;;;1.47;1.20;;;;;;;20.75;53.99;96675.81;4933082;29;20208;-27
2023/04/24 10:58:22;;;;;;;1.73;1.40;;;;;;;20.75;54.08;96691.13;4936186;28;20231;-28
2023/04/24 11:00:58;;;;;;;2.00;1.30;;;;;;;20.71;53.97;96671.50;4937231;29;20197;-27
2023/04/24 11:03:26;;;;;;;2.20;1.30;;;;;;;20.75;54.11;96667.31;4934242;29;20233;-28
2023/04/24 11:05:57;;;;;;;1.50;1.40;;;;;;;20.75;54.05;96669.88;4935026;29;20237;-28
2023/04/24 11:08:28;;;;;;;1.73;1.30;;;;;;;20.75;54.18;96677.53;4935971;29;20213;-27
2023/04/24 11:10:58;;;;;;;2.30;1.47;;;;;;;20.75;53.97;96674.97;4932500;29;20225;-27
2023/04/24 11:13:25;;;;;;;2.30;1.43;;;;;;;20.75;54.32;96674.97;4933218;29;20589;-26
2023/04/24 11:16:14;;;;;;;2.97;1.50;;;;;;;20.75;54.00;96674.97;4932626;29;20204;-28
2023/04/24 11:18:45;;;;;;;2.80;1.40;;;;;;;20.75;54.06;96677.53;4926979;29;20209;-32
2023/04/24 11:21:21;;;;;;;2.00;1.40;;;;;;;20.75;54.05;96682.63;4933227;29;20315;-32
2023/04/24 11:23:48;;;;;;;1.30;1.20;;;;;;;20.73;53.84;96672.41;4922573;29;20227;-28
2023/04/24 11:28:54;;;;;;;1.90;1.40;;;;;;;20.74;54.17;96681.75;4908778;29;20248;-28
2023/04/24 11:31:48;;;;;;;1.73;1.40;;;;;;;20.75;54.02;96675.81;4907763;29;20252;-32
2023/04/24 11:34:16;;;;;;;1.37;1.27;;;;;;;20.75;54.08;96673.25;4894234;29;20277;-31
2023/04/24 11:36:43;;;;;;;2.03;1.60;;;;;;;20.76;54.27;96663.91;4894886;29;20248;-27
2023/04/24 11:39:11;;;;;;;1.33;1.23;;;;;;;20.76;54.31;96671.56;4911306;29;20300;-28